• Join FlightAware (Why Join?)
  • Login
  • US Flag 
11:19AM EST


 

Airport Tracker/Info


-or-


 

Live Flight TrackerFlight Track Log ✈ SWA167 ✈ 29-Apr-2013 ✈ KDAL - KHRL

Flight Track Log - Related Links

Times and Time Zones

All times are in EDT time to prevent confusion due to time zone crossing. See the SWA167 flight status page for this flight to view local times or setup timezone preferences in your user account.

Time Position Orientation Groundspeed Altitude Reporting Facility
EDT Latitude Longitude Course Direction KTS MPH feet Rate Location/Type
05:20PM 32.8333 -96.8333 140° Southeast 180 207 1,500  Level Dallas / Fort Worth TRACON
05:20PM 32.8000 -96.8000 140° Southeast 212 244 2,800 2,400 Climbing Dallas / Fort Worth TRACON
05:21PM 32.7500 -96.7667 151° Southeast 219 252 5,900 3,060 Climbing Dallas / Fort Worth TRACON
05:23PM 32.6547 -96.8606 220° Southwest 242 278 11,100 2,880 Climbing Fort Worth Center
05:24PM 32.6342 -96.9422 253° West 276 318 13,700 2,220 Climbing Fort Worth Center
05:25PM 32.5675 -97.0164 223° Southwest 310 357 15,600 2,280 Climbing Fort Worth Center
05:26PM 32.4758 -97.0342 189° South 339 390 18,300 2,460 Climbing Fort Worth Center
05:27PM 32.3631 -97.0692 195° South 376 433 20,600 2,220 Climbing Fort Worth Center
05:28PM 32.2672 -97.0964 194° South 396 456 22,800 2,220 Climbing Fort Worth Center
05:29PM 32.1419 -97.1361 195° South 409 471 25,100 2,040 Climbing Fort Worth Center
05:30PM 32.0314 -97.1658 193° South 414 476 26,900 1,860 Climbing Fort Worth Center
05:31PM 31.9147 -97.1981 193° South 414 476 28,900 1,800 Climbing Fort Worth Center
05:33PM 31.6803 -97.2639 193° South 428 493 32,500 1,800 Climbing Houston Center
05:34PM 31.5722 -97.3114 201° Southwest 409 471 34,600 1,680 Climbing Houston Center
05:35PM 31.4686 -97.3606 202° Southwest 401 461 36,000 660 Climbing Houston Center
05:36PM 31.3636 -97.4108 202° Southwest 402 463 36,000  Level Houston Center
05:37PM 31.2297 -97.4264 186° South 418 481 36,000  Level Houston Center
05:38PM 31.1139 -97.4269 180° South 415 478 36,000  Level Houston Center
05:39PM 30.9986 -97.4275 180° South 415 478 36,000  Level Houston Center
05:40PM 30.8833 -97.4286 180° South 418 481 36,000  Level Houston Center
05:41PM 30.7681 -97.4292 180° South 415 478 36,000  Level Houston Center
05:42PM 30.6347 -97.4294 180° South 410 472 36,000  Level Houston Center
05:43PM 30.5453 -97.5019 215° Southwest 389 448 36,000  Level Houston Center
05:44PM 30.4661 -97.5894 224° Southwest 386 444 36,000  Level Houston Center
05:46PM 30.3864 -97.6750 223° Southwest 388 447 36,000  Level Houston Center
05:47PM 30.3061 -97.7597 222° Southwest 386 444 36,000  Level Houston Center
05:48PM 30.2272 -97.8458 223° Southwest 386 444 36,000  Level Houston Center
05:49PM 30.1328 -97.9450 222° Southwest 388 447 36,000  Level Houston Center
05:50PM 30.0528 -98.0297 223° Southwest 391 450 36,000  Level Houston Center
05:51PM 29.9675 -98.1200 223° Southwest 389 448 36,000  Level Houston Center
05:52PM 29.8881 -98.2047 223° Southwest 390 449 36,000  Level Houston Center
05:53PM 29.8025 -98.2953 223° Southwest 390 449 36,000  Level Houston Center
05:54PM 29.7233 -98.3786 222° Southwest 388 447 36,000  Level Houston Center
05:55PM 29.6519 -98.4508 221° Southwest 385 443 36,000  Level Houston Center
05:56PM 29.5603 -98.5239 215° Southwest 397 457 36,000  Level Houston Center
05:57PM 29.4528 -98.6144 216° Southwest 390 449 36,000  Level Houston Center
05:58PM 29.3656 -98.6875 216° Southwest 389 448 36,000  Level Houston Center
05:59PM 29.2703 -98.7661 216° Southwest 391 450 36,000  Level Houston Center
06:00PM 29.1719 -98.8233 207° Southwest 397 457 36,000  Level Houston Center
06:01PM 29.0600 -98.8742 202° Southwest 403 464 36,000  Level Houston Center
06:02PM 28.9544 -98.9150 199° South 400 460 36,000  Level Houston Center
06:03PM 28.8306 -98.9303 186° South 413 475 36,000  Level Houston Center
06:04PM 28.7156 -98.8933 164° South 431 496 36,000  Level Houston Center
06:05PM 28.6094 -98.8394 156° South 444 511 36,000  Level Houston Center
06:06PM 28.4975 -98.7817 156° South 442 509 36,000  Level Houston Center
06:07PM 28.3836 -98.7256 157° South 444 511 36,000  Level Houston Center
06:08PM 28.2697 -98.6706 157° South 444 511 36,000  Level Houston Center
06:09PM 28.1325 -98.6044 157° South 445 512 36,000  Level Houston Center
06:10PM 28.0178 -98.5483 157° South 447 514 36,000  Level Houston Center
06:11PM 27.9025 -98.4931 157° South 447 514 36,000 -840 Level Houston Center
06:12PM 27.7869 -98.4369 157° South 449 517 34,300 -2,340 Descending Houston Center
06:13PM 27.6725 -98.3817 157° South 446 513 31,200 -2,760 Descending Houston Center
06:14PM 27.5589 -98.3272 157° South 442 509 28,700 -2,460 Descending Houston Center
06:16PM 27.4500 -98.2758 157° South 430 495 26,200 -2,580 Descending Houston Center
06:17PM 27.3242 -98.2164 157° South 412 474 23,400 -2,580 Descending Houston Center
06:17PM 27.2528 -98.1833 158° South 399 459 21,800 -2,280 Descending Houston Center
06:18PM 27.2239 -98.1675 154° Southeast 399 459 21,100 -2,340 Descending Houston Center
06:18PM 27.1972 -98.1553 158° South 392 451 20,400 -2,160 Descending Houston Center
06:19PM 27.1256 -98.1217 157° South 386 444 18,900 -2,220 Descending Houston Center
06:19PM 27.0931 -98.1053 156° South 376 433 18,200 -2,280 Descending Houston Center
06:20PM 27.0314 -98.0767 158° South 370 426 16,600 -1,260 Descending Houston Center
06:21PM 26.9411 -98.0350 158° South 352 405 16,000 -1,080 Descending Houston Center
06:22PM 26.8425 -97.9811 154° Southeast 332 382 14,400 -2,040 Descending Houston Center
06:23PM 26.7531 -97.9761 177° South 321 369 11,900 -2,400 Descending Houston Center
06:24PM 26.6678 -97.9453 162° South 335 386 9,500 -1,920 Descending Houston Center
06:25PM 26.5953 -97.8892 145° Southeast 290 334 8,000 -1,800 Descending Houston Center
06:26PM 26.5319 -97.8392 145° Southeast 278 320 5,900 -2,100 Descending Houston Center
06:27PM 26.4681 -97.7869 144° Southeast 265 305 3,800 -1,620 Descending Houston Center
06:28PM 26.4083 -97.7403 145° Southeast 262 302 2,600 -900 Descending Houston Center
06:29PM 26.3567 -97.6986 144° Southeast 244 281 2,000 -540 Descending Houston Center
06:30PM 26.3128 -97.6636 144° Southeast 175 201 1,500 -660 Descending Houston Center
06:31PM 26.2775 -97.6581 172° South 123 142 800 -720 Descending Houston Center
06:32PM 26.2406 -97.6586 181° South 129 148 100 -660 Descending Houston Center
06:34PM 26.2271 -97.6551 157° South  Level Estimated